sensor_id;sensor_type;location;lat;lon;timestamp;P1;durP1;ratioP1;P2;durP2;ratioP2
7193;SDS011;3638;48.820;9.244;2023-11-18T00:02:05;5.77;;;5.27;;
7193;SDS011;3638;48.820;9.244;2023-11-18T00:04:34;5.90;;;5.30;;
7193;SDS011;3638;48.820;9.244;2023-11-18T00:07:01;6.10;;;5.57;;
7193;SDS011;3638;48.820;9.244;2023-11-18T00:09:29;6.57;;;5.97;;
7193;SDS011;3638;48.820;9.244;2023-11-18T00:11:56;7.00;;;6.30;;
7193;SDS011;3638;48.820;9.244;2023-11-18T00:14:23;5.93;;;5.43;;
7193;SDS011;3638;48.820;9.244;2023-11-18T00:16:50;6.47;;;5.80;;
7193;SDS011;3638;48.820;9.244;2023-11-18T00:19:18;6.30;;;5.80;;
7193;SDS011;3638;48.820;9.244;2023-11-18T00:21:46;6.60;;;5.90;;
7193;SDS011;3638;48.820;9.244;2023-11-18T00:24:14;6.37;;;5.80;;
7193;SDS011;3638;48.820;9.244;2023-11-18T00:26:41;6.17;;;5.67;;
7193;SDS011;3638;48.820;9.244;2023-11-18T00:29:08;6.83;;;6.13;;
7193;SDS011;3638;48.820;9.244;2023-11-18T00:31:35;6.93;;;6.33;;
7193;SDS011;3638;48.820;9.244;2023-11-18T00:34:03;6.63;;;6.03;;
7193;SDS011;3638;48.820;9.244;2023-11-18T00:36:30;6.20;;;5.60;;
7193;SDS011;3638;48.820;9.244;2023-11-18T00:38:58;6.77;;;6.17;;
7193;SDS011;3638;48.820;9.244;2023-11-18T00:41:26;8.13;;;6.17;;
7193;SDS011;3638;48.820;9.244;2023-11-18T00:43:53;6.50;;;6.00;;
7193;SDS011;3638;48.820;9.244;2023-11-18T00:46:21;6.00;;;5.50;;
7193;SDS011;3638;48.820;9.244;2023-11-18T00:48:49;6.43;;;5.83;;
7193;SDS011;3638;48.820;9.244;2023-11-18T00:51:16;6.90;;;6.30;;
7193;SDS011;3638;48.820;9.244;2023-11-18T00:53:43;7.03;;;6.40;;
7193;SDS011;3638;48.820;9.244;2023-11-18T00:56:14;6.40;;;5.80;;
7193;SDS011;3638;48.820;9.244;2023-11-18T00:58:43;6.07;;;5.57;;
7193;SDS011;3638;48.820;9.244;2023-11-18T01:01:10;6.03;;;5.43;;
7193;SDS011;3638;48.820;9.244;2023-11-18T01:03:37;6.47;;;5.77;;
7193;SDS011;3638;48.820;9.244;2023-11-18T01:06:04;6.30;;;5.70;;
7193;SDS011;3638;48.820;9.244;2023-11-18T01:08:32;6.40;;;5.90;;
7193;SDS011;3638;48.820;9.244;2023-11-18T01:10:59;6.33;;;5.57;;
7193;SDS011;3638;48.820;9.244;2023-11-18T01:13:27;6.20;;;5.60;;
7193;SDS011;3638;48.820;9.244;2023-11-18T01:15:55;6.10;;;5.60;;
7193;SDS011;3638;48.820;9.244;2023-11-18T01:18:22;6.07;;;5.47;;
7193;SDS011;3638;48.820;9.244;2023-11-18T01:20:50;6.10;;;5.07;;
7193;SDS011;3638;48.820;9.244;2023-11-18T01:23:17;5.83;;;5.23;;
7193;SDS011;3638;48.820;9.244;2023-11-18T01:25:44;5.50;;;5.00;;
7193;SDS011;3638;48.820;9.244;2023-11-18T01:28:11;5.40;;;5.00;;
7193;SDS011;3638;48.820;9.244;2023-11-18T01:30:41;5.50;;;4.93;;
7193;SDS011;3638;48.820;9.244;2023-11-18T01:33:10;5.37;;;4.90;;
7193;SDS011;3638;48.820;9.244;2023-11-18T01:35:37;5.60;;;5.10;;
7193;SDS011;3638;48.820;9.244;2023-11-18T01:38:05;5.60;;;5.10;;
7193;SDS011;3638;48.820;9.244;2023-11-18T01:40:32;6.43;;;5.73;;
7193;SDS011;3638;48.820;9.244;2023-11-18T01:43:00;6.53;;;5.40;;
7193;SDS011;3638;48.820;9.244;2023-11-18T01:45:30;5.57;;;5.07;;
7193;SDS011;3638;48.820;9.244;2023-11-18T01:47:58;5.97;;;5.37;;
7193;SDS011;3638;48.820;9.244;2023-11-18T01:50:26;6.00;;;5.40;;
7193;SDS011;3638;48.820;9.244;2023-11-18T01:52:55;5.57;;;5.00;;
7193;SDS011;3638;48.820;9.244;2023-11-18T01:55:22;5.87;;;5.17;;
7193;SDS011;3638;48.820;9.244;2023-11-18T01:57:49;5.70;;;5.10;;
7193;SDS011;3638;48.820;9.244;2023-11-18T02:00:16;6.00;;;5.50;;
7193;SDS011;3638;48.820;9.244;2023-11-18T02:02:44;5.27;;;4.77;;
7193;SDS011;3638;48.820;9.244;2023-11-18T02:05:13;5.30;;;4.90;;
7193;SDS011;3638;48.820;9.244;2023-11-18T02:07:41;5.33;;;4.93;;
7193;SDS011;3638;48.820;9.244;2023-11-18T02:10:08;5.33;;;4.83;;
7193;SDS011;3638;48.820;9.244;2023-11-18T02:12:38;5.60;;;5.10;;
7193;SDS011;3638;48.820;9.244;2023-11-18T02:15:09;5.30;;;4.80;;
7193;SDS011;3638;48.820;9.244;2023-11-18T02:17:38;5.83;;;5.23;;
7193;SDS011;3638;48.820;9.244;2023-11-18T02:20:07;5.33;;;4.90;;
7193;SDS011;3638;48.820;9.244;2023-11-18T02:22:42;5.53;;;4.83;;
7193;SDS011;3638;48.820;9.244;2023-11-18T02:25:09;5.97;;;4.73;;
7193;SDS011;3638;48.820;9.244;2023-11-18T02:27:38;5.33;;;4.87;;
7193;SDS011;3638;48.820;9.244;2023-11-18T02:30:06;5.20;;;4.80;;
7193;SDS011;3638;48.820;9.244;2023-11-18T02:32:39;4.80;;;4.40;;
7193;SDS011;3638;48.820;9.244;2023-11-18T02:35:10;5.13;;;4.73;;
7193;SDS011;3638;48.820;9.244;2023-11-18T02:37:42;5.33;;;4.83;;
7193;SDS011;3638;48.820;9.244;2023-11-18T02:40:12;4.90;;;4.50;;
7193;SDS011;3638;48.820;9.244;2023-11-18T02:42:46;5.60;;;4.97;;
7193;SDS011;3638;48.820;9.244;2023-11-18T02:45:15;5.67;;;5.07;;
7193;SDS011;3638;48.820;9.244;2023-11-18T02:47:44;5.20;;;4.70;;
7193;SDS011;3638;48.820;9.244;2023-11-18T02:50:11;5.07;;;4.60;;
7193;SDS011;3638;48.820;9.244;2023-11-18T02:52:40;5.33;;;4.83;;
7193;SDS011;3638;48.820;9.244;2023-11-18T02:55:08;5.60;;;5.20;;
7193;SDS011;3638;48.820;9.244;2023-11-18T02:57:36;6.10;;;5.00;;
7193;SDS011;3638;48.820;9.244;2023-11-18T03:00:06;5.10;;;4.60;;
7193;SDS011;3638;48.820;9.244;2023-11-18T03:02:37;5.57;;;5.07;;
7193;SDS011;3638;48.820;9.244;2023-11-18T03:05:05;5.40;;;4.90;;
7193;SDS011;3638;48.820;9.244;2023-11-18T03:07:32;5.00;;;4.50;;
7193;SDS011;3638;48.820;9.244;2023-11-18T03:10:00;5.20;;;4.80;;
7193;SDS011;3638;48.820;9.244;2023-11-18T03:12:27;4.80;;;4.40;;
7193;SDS011;3638;48.820;9.244;2023-11-18T03:14:54;5.20;;;4.80;;
7193;SDS011;3638;48.820;9.244;2023-11-18T03:17:24;5.40;;;4.90;;
7193;SDS011;3638;48.820;9.244;2023-11-18T03:19:51;6.00;;;5.47;;
7193;SDS011;3638;48.820;9.244;2023-11-18T03:22:18;5.50;;;5.10;;
7193;SDS011;3638;48.820;9.244;2023-11-18T03:24:45;5.70;;;5.30;;
7193;SDS011;3638;48.820;9.244;2023-11-18T03:27:13;5.70;;;5.10;;
7193;SDS011;3638;48.820;9.244;2023-11-18T03:29:40;5.40;;;5.00;;
7193;SDS011;3638;48.820;9.244;2023-11-18T03:32:09;6.03;;;5.53;;
7193;SDS011;3638;48.820;9.244;2023-11-18T03:34:38;5.47;;;5.00;;
7193;SDS011;3638;48.820;9.244;2023-11-18T03:37:06;5.87;;;5.20;;
7193;SDS011;3638;48.820;9.244;2023-11-18T03:39:33;5.77;;;5.27;;
7193;SDS011;3638;48.820;9.244;2023-11-18T03:42:00;5.53;;;5.10;;
7193;SDS011;3638;48.820;9.244;2023-11-18T03:44:27;5.27;;;4.70;;
7193;SDS011;3638;48.820;9.244;2023-11-18T03:46:54;5.43;;;4.90;;
7193;SDS011;3638;48.820;9.244;2023-11-18T03:49:22;5.60;;;5.10;;
7193;SDS011;3638;48.820;9.244;2023-11-18T03:51:50;5.40;;;5.00;;
7193;SDS011;3638;48.820;9.244;2023-11-18T03:54:18;5.00;;;4.60;;
7193;SDS011;3638;48.820;9.244;2023-11-18T03:56:45;5.13;;;4.73;;
7193;SDS011;3638;48.820;9.244;2023-11-18T03:59:12;5.47;;;4.97;;
7193;SDS011;3638;48.820;9.244;2023-11-18T04:01:41;5.03;;;4.63;;
7193;SDS011;3638;48.820;9.244;2023-11-18T04:04:08;5.30;;;4.90;;
7193;SDS011;3638;48.820;9.244;2023-11-18T04:06:35;4.93;;;4.53;;
7193;SDS011;3638;48.820;9.244;2023-11-18T04:09:04;5.10;;;4.70;;
7193;SDS011;3638;48.820;9.244;2023-11-18T04:11:31;5.00;;;4.60;;
7193;SDS011;3638;48.820;9.244;2023-11-18T04:13:59;4.80;;;4.40;;
7193;SDS011;3638;48.820;9.244;2023-11-18T04:16:26;5.00;;;4.60;;
7193;SDS011;3638;48.820;9.244;2023-11-18T04:18:54;5.67;;;4.87;;
7193;SDS011;3638;48.820;9.244;2023-11-18T04:21:21;5.47;;;5.00;;
7193;SDS011;3638;48.820;9.244;2023-11-18T04:23:48;5.30;;;4.90;;
7193;SDS011;3638;48.820;9.244;2023-11-18T04:26:17;5.10;;;4.70;;
7193;SDS011;3638;48.820;9.244;2023-11-18T04:28:44;4.90;;;4.50;;
7193;SDS011;3638;48.820;9.244;2023-11-18T04:31:11;5.67;;;5.03;;
7193;SDS011;3638;48.820;9.244;2023-11-18T04:33:39;5.67;;;5.10;;
7193;SDS011;3638;48.820;9.244;2023-11-18T04:36:06;4.87;;;4.47;;
7193;SDS011;3638;48.820;9.244;2023-11-18T04:38:35;5.40;;;4.90;;
7193;SDS011;3638;48.820;9.244;2023-11-18T04:41:02;5.97;;;5.47;;
7193;SDS011;3638;48.820;9.244;2023-11-18T04:43:31;5.40;;;4.90;;
7193;SDS011;3638;48.820;9.244;2023-11-18T04:45:58;5.50;;;5.00;;
7193;SDS011;3638;48.820;9.244;2023-11-18T04:48:26;5.50;;;5.00;;
7193;SDS011;3638;48.820;9.244;2023-11-18T04:50:53;6.00;;;5.30;;
7193;SDS011;3638;48.820;9.244;2023-11-18T04:53:20;5.60;;;5.20;;
7193;SDS011;3638;48.820;9.244;2023-11-18T04:55:47;6.03;;;5.43;;
7193;SDS011;3638;48.820;9.244;2023-11-18T04:58:15;5.20;;;4.80;;
7193;SDS011;3638;48.820;9.244;2023-11-18T05:00:43;5.70;;;5.20;;
7193;SDS011;3638;48.820;9.244;2023-11-18T05:03:10;5.90;;;5.40;;
7193;SDS011;3638;48.820;9.244;2023-11-18T05:05:38;5.70;;;5.13;;
7193;SDS011;3638;48.820;9.244;2023-11-18T05:08:05;5.37;;;4.90;;
7193;SDS011;3638;48.820;9.244;2023-11-18T05:10:33;5.40;;;4.90;;
7193;SDS011;3638;48.820;9.244;2023-11-18T05:13:01;5.70;;;5.20;;
7193;SDS011;3638;48.820;9.244;2023-11-18T05:15:29;4.93;;;4.53;;
7193;SDS011;3638;48.820;9.244;2023-11-18T05:17:57;5.07;;;4.67;;
7193;SDS011;3638;48.820;9.244;2023-11-18T05:20:26;5.33;;;4.83;;
7193;SDS011;3638;48.820;9.244;2023-11-18T05:22:53;5.20;;;4.80;;
7193;SDS011;3638;48.820;9.244;2023-11-18T05:25:20;5.00;;;4.60;;
7193;SDS011;3638;48.820;9.244;2023-11-18T05:27:48;5.53;;;4.80;;
7193;SDS011;3638;48.820;9.244;2023-11-18T05:30:15;5.87;;;5.37;;
7193;SDS011;3638;48.820;9.244;2023-11-18T05:32:43;6.03;;;5.03;;
7193;SDS011;3638;48.820;9.244;2023-11-18T05:35:11;5.30;;;4.80;;
7193;SDS011;3638;48.820;9.244;2023-11-18T05:37:39;5.53;;;4.93;;
7193;SDS011;3638;48.820;9.244;2023-11-18T05:40:06;4.83;;;4.43;;
7193;SDS011;3638;48.820;9.244;2023-11-18T05:42:36;6.67;;;4.87;;
7193;SDS011;3638;48.820;9.244;2023-11-18T05:45:06;5.47;;;4.70;;
7193;SDS011;3638;48.820;9.244;2023-11-18T05:47:42;4.90;;;4.50;;
7193;SDS011;3638;48.820;9.244;2023-11-18T05:50:09;5.50;;;5.00;;
7193;SDS011;3638;48.820;9.244;2023-11-18T05:52:39;5.33;;;4.83;;
7193;SDS011;3638;48.820;9.244;2023-11-18T05:55:07;5.60;;;5.10;;
7193;SDS011;3638;48.820;9.244;2023-11-18T05:57:35;5.50;;;5.00;;
7193;SDS011;3638;48.820;9.244;2023-11-18T06:00:02;5.60;;;4.83;;
7193;SDS011;3638;48.820;9.244;2023-11-18T06:02:34;6.73;;;5.23;;
7193;SDS011;3638;48.820;9.244;2023-11-18T06:05:04;5.10;;;4.60;;
7193;SDS011;3638;48.820;9.244;2023-11-18T06:07:34;4.97;;;4.57;;
7193;SDS011;3638;48.820;9.244;2023-11-18T06:10:01;4.93;;;4.53;;
7193;SDS011;3638;48.820;9.244;2023-11-18T06:12:30;5.40;;;4.70;;
7193;SDS011;3638;48.820;9.244;2023-11-18T06:14:57;5.40;;;4.83;;
7193;SDS011;3638;48.820;9.244;2023-11-18T06:17:25;5.37;;;4.90;;
7193;SDS011;3638;48.820;9.244;2023-11-18T06:19:53;5.17;;;4.77;;
7193;SDS011;3638;48.820;9.244;2023-11-18T06:22:20;5.10;;;4.70;;
7193;SDS011;3638;48.820;9.244;2023-11-18T06:24:48;5.40;;;5.00;;
7193;SDS011;3638;48.820;9.244;2023-11-18T06:27:16;4.90;;;4.53;;
7193;SDS011;3638;48.820;9.244;2023-11-18T06:29:48;5.83;;;5.27;;
7193;SDS011;3638;48.820;9.244;2023-11-18T06:32:18;5.97;;;5.47;;
7193;SDS011;3638;48.820;9.244;2023-11-18T06:34:46;6.00;;;5.37;;
7193;SDS011;3638;48.820;9.244;2023-11-18T06:37:14;5.73;;;5.17;;
7193;SDS011;3638;48.820;9.244;2023-11-18T06:39:41;6.23;;;5.73;;
7193;SDS011;3638;48.820;9.244;2023-11-18T06:42:13;6.23;;;5.63;;
7193;SDS011;3638;48.820;9.244;2023-11-18T06:44:41;6.70;;;5.80;;
7193;SDS011;3638;48.820;9.244;2023-11-18T06:47:08;7.30;;;6.60;;
7193;SDS011;3638;48.820;9.244;2023-11-18T06:49:37;6.83;;;6.23;;
7193;SDS011;3638;48.820;9.244;2023-11-18T06:52:06;7.30;;;6.57;;
7193;SDS011;3638;48.820;9.244;2023-11-18T06:54:37;6.90;;;6.20;;
7193;SDS011;3638;48.820;9.244;2023-11-18T06:57:07;6.97;;;6.17;;
7193;SDS011;3638;48.820;9.244;2023-11-18T06:59:36;6.60;;;6.00;;
7193;SDS011;3638;48.820;9.244;2023-11-18T07:02:03;6.60;;;6.00;;
7193;SDS011;3638;48.820;9.244;2023-11-18T07:04:31;6.60;;;5.87;;
7193;SDS011;3638;48.820;9.244;2023-11-18T07:06:58;6.43;;;5.80;;
7193;SDS011;3638;48.820;9.244;2023-11-18T07:09:26;6.40;;;5.80;;
7193;SDS011;3638;48.820;9.244;2023-11-18T07:11:54;6.37;;;5.53;;
7193;SDS011;3638;48.820;9.244;2023-11-18T07:14:22;6.53;;;5.90;;
7193;SDS011;3638;48.820;9.244;2023-11-18T07:16:52;5.93;;;5.43;;
7193;SDS011;3638;48.820;9.244;2023-11-18T07:19:19;6.93;;;6.33;;
7193;SDS011;3638;48.820;9.244;2023-11-18T07:21:47;10.23;;;8.00;;
7193;SDS011;3638;48.820;9.244;2023-11-18T07:24:14;6.90;;;6.30;;
7193;SDS011;3638;48.820;9.244;2023-11-18T07:26:42;6.60;;;6.00;;
7193;SDS011;3638;48.820;9.244;2023-11-18T07:29:10;6.53;;;5.97;;
7193;SDS011;3638;48.820;9.244;2023-11-18T07:31:37;7.00;;;5.93;;
7193;SDS011;3638;48.820;9.244;2023-11-18T07:34:05;6.50;;;5.90;;
7193;SDS011;3638;48.820;9.244;2023-11-18T07:36:33;6.60;;;6.00;;
7193;SDS011;3638;48.820;9.244;2023-11-18T07:39:00;8.50;;;5.47;;
7193;SDS011;3638;48.820;9.244;2023-11-18T07:41:28;6.33;;;5.73;;
7193;SDS011;3638;48.820;9.244;2023-11-18T07:43:57;5.93;;;5.33;;
7193;SDS011;3638;48.820;9.244;2023-11-18T07:46:24;5.67;;;5.07;;
7193;SDS011;3638;48.820;9.244;2023-11-18T07:48:51;5.93;;;5.43;;
7193;SDS011;3638;48.820;9.244;2023-11-18T07:51:20;5.80;;;5.30;;
7193;SDS011;3638;48.820;9.244;2023-11-18T07:53:48;5.40;;;5.00;;
7193;SDS011;3638;48.820;9.244;2023-11-18T07:56:15;5.97;;;5.47;;
7193;SDS011;3638;48.820;9.244;2023-11-18T07:58:42;5.33;;;4.83;;
7193;SDS011;3638;48.820;9.244;2023-11-18T08:01:11;5.63;;;5.00;;
7193;SDS011;3638;48.820;9.244;2023-11-18T08:03:41;5.30;;;4.80;;
7193;SDS011;3638;48.820;9.244;2023-11-18T08:06:08;5.13;;;4.63;;
7193;SDS011;3638;48.820;9.244;2023-11-18T08:08:38;5.27;;;4.80;;
7193;SDS011;3638;48.820;9.244;2023-11-18T08:11:06;5.00;;;4.50;;
7193;SDS011;3638;48.820;9.244;2023-11-18T08:13:36;6.57;;;5.30;;
7193;SDS011;3638;48.820;9.244;2023-11-18T08:16:03;5.13;;;4.63;;
7193;SDS011;3638;48.820;9.244;2023-11-18T08:18:32;6.27;;;5.67;;
7193;SDS011;3638;48.820;9.244;2023-11-18T08:21:00;5.90;;;5.40;;
7193;SDS011;3638;48.820;9.244;2023-11-18T08:23:30;5.97;;;5.37;;
7193;SDS011;3638;48.820;9.244;2023-11-18T08:25:59;5.43;;;4.93;;
7193;SDS011;3638;48.820;9.244;2023-11-18T08:28:26;5.00;;;4.43;;
7193;SDS011;3638;48.820;9.244;2023-11-18T08:30:53;4.67;;;4.20;;
7193;SDS011;3638;48.820;9.244;2023-11-18T08:33:20;4.60;;;4.20;;
7193;SDS011;3638;48.820;9.244;2023-11-18T08:35:49;6.07;;;5.47;;
7193;SDS011;3638;48.820;9.244;2023-11-18T08:38:16;5.23;;;4.77;;
7193;SDS011;3638;48.820;9.244;2023-11-18T08:40:44;4.80;;;4.33;;
7193;SDS011;3638;48.820;9.244;2023-11-18T08:43:14;4.70;;;4.07;;
7193;SDS011;3638;48.820;9.244;2023-11-18T08:45:42;5.07;;;4.57;;
7193;SDS011;3638;48.820;9.244;2023-11-18T08:48:09;4.87;;;4.37;;
7193;SDS011;3638;48.820;9.244;2023-11-18T08:50:37;4.53;;;4.13;;
7193;SDS011;3638;48.820;9.244;2023-11-18T08:53:05;4.90;;;4.43;;
7193;SDS011;3638;48.820;9.244;2023-11-18T08:55:34;4.77;;;4.37;;
7193;SDS011;3638;48.820;9.244;2023-11-18T08:58:05;4.90;;;4.40;;
7193;SDS011;3638;48.820;9.244;2023-11-18T09:00:45;5.30;;;3.73;;
7193;SDS011;3638;48.820;9.244;2023-11-18T09:03:19;5.23;;;4.10;;
7193;SDS011;3638;48.820;9.244;2023-11-18T09:05:50;4.23;;;3.83;;
7193;SDS011;3638;48.820;9.244;2023-11-18T09:08:24;5.53;;;4.60;;
7193;SDS011;3638;48.820;9.244;2023-11-18T09:10:54;6.13;;;5.03;;
7193;SDS011;3638;48.820;9.244;2023-11-18T09:13:22;4.50;;;4.10;;
7193;SDS011;3638;48.820;9.244;2023-11-18T09:15:55;6.13;;;4.50;;
7193;SDS011;3638;48.820;9.244;2023-11-18T09:18:22;4.93;;;3.97;;
7193;SDS011;3638;48.820;9.244;2023-11-18T09:20:51;3.83;;;3.53;;
7193;SDS011;3638;48.820;9.244;2023-11-18T09:23:19;4.43;;;3.50;;
7193;SDS011;3638;48.820;9.244;2023-11-18T09:25:48;5.53;;;4.20;;
7193;SDS011;3638;48.820;9.244;2023-11-18T09:28:15;3.70;;;3.20;;
7193;SDS011;3638;48.820;9.244;2023-11-18T09:30:43;4.53;;;3.47;;
7193;SDS011;3638;48.820;9.244;2023-11-18T09:33:20;3.70;;;3.40;;
7193;SDS011;3638;48.820;9.244;2023-11-18T09:35:57;4.77;;;3.83;;
7193;SDS011;3638;48.820;9.244;2023-11-18T09:38:25;3.70;;;3.40;;
7193;SDS011;3638;48.820;9.244;2023-11-18T09:40:56;5.47;;;3.27;;
7193;SDS011;3638;48.820;9.244;2023-11-18T09:43:28;3.50;;;3.20;;
7193;SDS011;3638;48.820;9.244;2023-11-18T09:46:00;4.80;;;3.10;;
7193;SDS011;3638;48.820;9.244;2023-11-18T09:48:31;3.37;;;2.90;;
7193;SDS011;3638;48.820;9.244;2023-11-18T09:51:05;3.27;;;2.73;;
7193;SDS011;3638;48.820;9.244;2023-11-18T09:53:35;4.43;;;2.93;;
7193;SDS011;3638;48.820;9.244;2023-11-18T09:56:07;3.77;;;2.90;;
7193;SDS011;3638;48.820;9.244;2023-11-18T09:58:45;3.70;;;3.40;;
7193;SDS011;3638;48.820;9.244;2023-11-18T10:01:24;2.90;;;2.70;;
7193;SDS011;3638;48.820;9.244;2023-11-18T10:03:59;2.70;;;2.50;;
7193;SDS011;3638;48.820;9.244;2023-11-18T10:06:31;5.10;;;2.80;;
7193;SDS011;3638;48.820;9.244;2023-11-18T10:08:59;3.73;;;2.70;;
7193;SDS011;3638;48.820;9.244;2023-11-18T10:11:40;3.00;;;2.57;;
7193;SDS011;3638;48.820;9.244;2023-11-18T10:14:06;3.47;;;3.17;;
7193;SDS011;3638;48.820;9.244;2023-11-18T10:16:35;4.07;;;3.07;;
7193;SDS011;3638;48.820;9.244;2023-11-18T10:19:04;3.23;;;2.93;;
7193;SDS011;3638;48.820;9.244;2023-11-18T10:21:37;4.50;;;3.10;;
7193;SDS011;3638;48.820;9.244;2023-11-18T10:24:05;3.03;;;2.73;;
7193;SDS011;3638;48.820;9.244;2023-11-18T10:26:39;2.80;;;2.60;;
7193;SDS011;3638;48.820;9.244;2023-11-18T10:29:08;3.93;;;2.60;;
7193;SDS011;3638;48.820;9.244;2023-11-18T10:31:38;2.53;;;2.33;;
7193;SDS011;3638;48.820;9.244;2023-11-18T10:34:11;2.80;;;2.50;;
7193;SDS011;3638;48.820;9.244;2023-11-18T10:36:41;3.50;;;2.60;;
7193;SDS011;3638;48.820;9.244;2023-11-18T10:39:13;3.43;;;2.20;;
7193;SDS011;3638;48.820;9.244;2023-11-18T10:41:42;3.53;;;2.30;;
7193;SDS011;3638;48.820;9.244;2023-11-18T10:44:12;3.27;;;2.40;;
7193;SDS011;3638;48.820;9.244;2023-11-18T10:46:40;2.67;;;2.47;;
7193;SDS011;3638;48.820;9.244;2023-11-18T10:49:13;4.37;;;2.30;;
7193;SDS011;3638;48.820;9.244;2023-11-18T10:51:42;2.50;;;2.30;;
7193;SDS011;3638;48.820;9.244;2023-11-18T10:54:12;2.83;;;2.30;;
7193;SDS011;3638;48.820;9.244;2023-11-18T10:56:48;5.63;;;3.30;;
7193;SDS011;3638;48.820;9.244;2023-11-18T10:59:16;17.70;;;11.37;;
7193;SDS011;3638;48.820;9.244;2023-11-18T11:01:43;12.47;;;7.07;;
7193;SDS011;3638;48.820;9.244;2023-11-18T11:04:15;3.17;;;2.87;;
7193;SDS011;3638;48.820;9.244;2023-11-18T11:06:46;4.87;;;3.90;;
7193;SDS011;3638;48.820;9.244;2023-11-18T11:09:18;4.83;;;3.60;;
7193;SDS011;3638;48.820;9.244;2023-11-18T11:11:50;2.50;;;2.30;;
7193;SDS011;3638;48.820;9.244;2023-11-18T11:14:20;5.03;;;2.47;;
7193;SDS011;3638;48.820;9.244;2023-11-18T11:16:51;2.80;;;2.40;;
7193;SDS011;3638;48.820;9.244;2023-11-18T11:19:23;4.63;;;2.57;;
7193;SDS011;3638;48.820;9.244;2023-11-18T11:22:00;3.37;;;2.17;;
7193;SDS011;3638;48.820;9.244;2023-11-18T11:24:34;2.93;;;2.20;;
7193;SDS011;3638;48.820;9.244;2023-11-18T11:27:22;3.10;;;2.40;;
7193;SDS011;3638;48.820;9.244;2023-11-18T11:30:01;12.50;;;6.17;;
7193;SDS011;3638;48.820;9.244;2023-11-18T11:32:35;7.40;;;4.37;;
7193;SDS011;3638;48.820;9.244;2023-11-18T11:35:14;3.47;;;2.83;;
7193;SDS011;3638;48.820;9.244;2023-11-18T11:37:44;2.60;;;2.30;;
7193;SDS011;3638;48.820;9.244;2023-11-18T11:40:12;3.80;;;2.90;;
7193;SDS011;3638;48.820;9.244;2023-11-18T11:42:46;5.23;;;3.00;;
7193;SDS011;3638;48.820;9.244;2023-11-18T11:45:20;2.80;;;2.10;;
7193;SDS011;3638;48.820;9.244;2023-11-18T11:47:53;2.53;;;2.33;;
7193;SDS011;3638;48.820;9.244;2023-11-18T11:50:40;2.40;;;2.20;;
7193;SDS011;3638;48.820;9.244;2023-11-18T11:53:13;3.33;;;2.53;;
7193;SDS011;3638;48.820;9.244;2023-11-18T11:55:44;3.80;;;3.40;;
7193;SDS011;3638;48.820;9.244;2023-11-18T11:58:25;2.93;;;2.63;;
7193;SDS011;3638;48.820;9.244;2023-11-18T12:00:53;3.57;;;2.47;;
7193;SDS011;3638;48.820;9.244;2023-11-18T12:03:21;5.83;;;3.07;;
7193;SDS011;3638;48.820;9.244;2023-11-18T12:05:54;3.63;;;2.77;;
7193;SDS011;3638;48.820;9.244;2023-11-18T12:08:29;4.90;;;2.53;;
7193;SDS011;3638;48.820;9.244;2023-11-18T12:10:57;3.53;;;2.50;;
7193;SDS011;3638;48.820;9.244;2023-11-18T12:13:24;2.83;;;2.20;;
7193;SDS011;3638;48.820;9.244;2023-11-18T12:15:52;8.93;;;2.97;;
7193;SDS011;3638;48.820;9.244;2023-11-18T12:18:23;2.40;;;2.20;;
7193;SDS011;3638;48.820;9.244;2023-11-18T12:20:52;2.97;;;2.27;;
7193;SDS011;3638;48.820;9.244;2023-11-18T12:23:27;3.07;;;2.57;;
7193;SDS011;3638;48.820;9.244;2023-11-18T12:25:55;3.23;;;2.37;;
7193;SDS011;3638;48.820;9.244;2023-11-18T12:28:24;2.57;;;2.37;;
7193;SDS011;3638;48.820;9.244;2023-11-18T12:30:53;2.60;;;2.13;;
7193;SDS011;3638;48.820;9.244;2023-11-18T12:45:42;4.10;;;2.40;;
7193;SDS011;3638;48.820;9.244;2023-11-18T12:48:25;3.00;;;2.60;;
7193;SDS011;3638;48.820;9.244;2023-11-18T12:50:54;2.83;;;2.30;;
7193;SDS011;3638;48.820;9.244;2023-11-18T12:53:25;4.70;;;2.80;;
7193;SDS011;3638;48.820;9.244;2023-11-18T12:55:55;3.50;;;2.63;;
7193;SDS011;3638;48.820;9.244;2023-11-18T12:58:24;3.30;;;2.70;;
7193;SDS011;3638;48.820;9.244;2023-11-18T13:00:58;2.93;;;2.60;;
7193;SDS011;3638;48.820;9.244;2023-11-18T13:03:29;4.30;;;2.97;;
7193;SDS011;3638;48.820;9.244;2023-11-18T13:06:02;4.27;;;2.70;;
7193;SDS011;3638;48.820;9.244;2023-11-18T13:08:32;3.87;;;2.87;;
7193;SDS011;3638;48.820;9.244;2023-11-18T13:11:01;4.23;;;2.50;;
7193;SDS011;3638;48.820;9.244;2023-11-18T13:13:29;2.73;;;2.50;;
7193;SDS011;3638;48.820;9.244;2023-11-18T13:15:57;4.17;;;3.10;;
7193;SDS011;3638;48.820;9.244;2023-11-18T13:18:25;2.83;;;2.63;;
7193;SDS011;3638;48.820;9.244;2023-11-18T13:20:55;3.63;;;2.87;;
7193;SDS011;3638;48.820;9.244;2023-11-18T13:23:24;2.80;;;2.60;;
7193;SDS011;3638;48.820;9.244;2023-11-18T13:25:56;6.23;;;2.70;;
7193;SDS011;3638;48.820;9.244;2023-11-18T13:28:25;2.93;;;2.63;;
7193;SDS011;3638;48.820;9.244;2023-11-18T13:30:53;3.53;;;2.50;;
7193;SDS011;3638;48.820;9.244;2023-11-18T13:33:20;3.33;;;2.57;;
7193;SDS011;3638;48.820;9.244;2023-11-18T13:35:47;3.73;;;2.77;;
7193;SDS011;3638;48.820;9.244;2023-11-18T13:38:16;2.70;;;2.50;;
7193;SDS011;3638;48.820;9.244;2023-11-18T13:40:44;3.87;;;3.10;;
7193;SDS011;3638;48.820;9.244;2023-11-18T13:43:13;4.10;;;3.27;;
7193;SDS011;3638;48.820;9.244;2023-11-18T13:45:40;3.60;;;2.70;;
7193;SDS011;3638;48.820;9.244;2023-11-18T13:48:08;4.30;;;2.63;;
7193;SDS011;3638;48.820;9.244;2023-11-18T13:50:40;3.80;;;2.90;;
7193;SDS011;3638;48.820;9.244;2023-11-18T13:53:07;3.43;;;2.67;;
7193;SDS011;3638;48.820;9.244;2023-11-18T13:55:38;4.33;;;3.00;;
7193;SDS011;3638;48.820;9.244;2023-11-18T13:58:15;4.07;;;3.00;;
7193;SDS011;3638;48.820;9.244;2023-11-18T14:00:42;3.90;;;3.20;;
7193;SDS011;3638;48.820;9.244;2023-11-18T14:03:14;4.43;;;3.20;;
7193;SDS011;3638;48.820;9.244;2023-11-18T14:05:42;3.83;;;3.30;;
7193;SDS011;3638;48.820;9.244;2023-11-18T14:08:11;4.40;;;3.50;;
7193;SDS011;3638;48.820;9.244;2023-11-18T14:10:47;4.37;;;3.50;;
7193;SDS011;3638;48.820;9.244;2023-11-18T14:13:17;4.20;;;3.33;;
7193;SDS011;3638;48.820;9.244;2023-11-18T14:15:45;6.20;;;3.27;;
7193;SDS011;3638;48.820;9.244;2023-11-18T14:18:13;3.67;;;3.30;;
7193;SDS011;3638;48.820;9.244;2023-11-18T14:20:40;3.80;;;3.30;;
7193;SDS011;3638;48.820;9.244;2023-11-18T14:23:14;4.67;;;3.57;;
7193;SDS011;3638;48.820;9.244;2023-11-18T14:25:43;4.80;;;3.70;;
7193;SDS011;3638;48.820;9.244;2023-11-18T14:28:11;4.00;;;3.40;;
7193;SDS011;3638;48.820;9.244;2023-11-18T14:30:39;4.50;;;3.43;;
7193;SDS011;3638;48.820;9.244;2023-11-18T14:33:07;6.17;;;3.80;;
7193;SDS011;3638;48.820;9.244;2023-11-18T14:35:34;4.07;;;3.40;;
7193;SDS011;3638;48.820;9.244;2023-11-18T14:38:03;4.07;;;3.67;;
7193;SDS011;3638;48.820;9.244;2023-11-18T14:40:33;3.93;;;3.53;;
7193;SDS011;3638;48.820;9.244;2023-11-18T14:43:01;4.97;;;3.53;;
7193;SDS011;3638;48.820;9.244;2023-11-18T14:45:29;6.50;;;4.00;;
7193;SDS011;3638;48.820;9.244;2023-11-18T14:47:59;5.50;;;4.07;;
7193;SDS011;3638;48.820;9.244;2023-11-18T14:50:27;4.17;;;3.63;;
7193;SDS011;3638;48.820;9.244;2023-11-18T14:52:55;6.07;;;3.97;;
7193;SDS011;3638;48.820;9.244;2023-11-18T14:55:24;5.10;;;3.70;;
7193;SDS011;3638;48.820;9.244;2023-11-18T14:57:52;5.27;;;3.60;;
7193;SDS011;3638;48.820;9.244;2023-11-18T15:00:20;4.53;;;4.13;;
7193;SDS011;3638;48.820;9.244;2023-11-18T15:02:51;4.77;;;3.73;;
7193;SDS011;3638;48.820;9.244;2023-11-18T15:05:21;6.00;;;4.00;;
7193;SDS011;3638;48.820;9.244;2023-11-18T15:07:49;4.37;;;3.50;;
7193;SDS011;3638;48.820;9.244;2023-11-18T15:10:18;5.27;;;3.60;;
7193;SDS011;3638;48.820;9.244;2023-11-18T15:12:46;4.37;;;3.97;;
7193;SDS011;3638;48.820;9.244;2023-11-18T15:15:15;4.70;;;3.73;;
7193;SDS011;3638;48.820;9.244;2023-11-18T15:17:44;4.20;;;3.33;;
7193;SDS011;3638;48.820;9.244;2023-11-18T15:20:13;4.20;;;3.60;;
7193;SDS011;3638;48.820;9.244;2023-11-18T15:22:44;4.73;;;4.00;;
7193;SDS011;3638;48.820;9.244;2023-11-18T15:25:12;4.23;;;3.83;;
7193;SDS011;3638;48.820;9.244;2023-11-18T15:27:40;4.27;;;3.60;;
7193;SDS011;3638;48.820;9.244;2023-11-18T15:30:08;5.07;;;4.13;;
7193;SDS011;3638;48.820;9.244;2023-11-18T15:32:37;4.30;;;3.83;;
7193;SDS011;3638;48.820;9.244;2023-11-18T15:35:06;4.97;;;3.77;;
7193;SDS011;3638;48.820;9.244;2023-11-18T15:37:34;4.60;;;3.57;;
7193;SDS011;3638;48.820;9.244;2023-11-18T15:40:05;5.37;;;3.70;;